createdAt,value
2022-07-30T00:49:53.553Z,15.50
2022-07-30T01:30:18.522Z,15.70
2022-07-30T01:40:23.949Z,15.70
2022-07-30T01:50:31.487Z,15.90
2022-07-30T02:00:40.532Z,15.60
2022-07-30T02:10:50.658Z,15.70
2022-07-30T02:41:25.290Z,15.50
2022-07-30T02:51:31.866Z,15.60
2022-07-30T03:01:36.958Z,15.50
2022-07-30T03:11:42.675Z,15.60
2022-07-30T03:31:54.079Z,15.70
2022-07-30T04:12:38.813Z,16.20
2022-07-30T04:53:37.158Z,17.00
2022-07-30T05:03:42.263Z,17.10
2022-07-30T05:13:49.501Z,17.20
2022-07-30T05:23:57.225Z,17.50
2022-07-30T05:34:09.264Z,17.70
2022-07-30T05:44:23.871Z,18.00
2022-07-30T05:54:29.504Z,18.30
2022-07-30T06:04:51.786Z,18.90
2022-07-30T06:14:56.977Z,19.30
2022-07-30T06:25:07.054Z,19.70
2022-07-30T06:35:13.486Z,20.20
2022-07-30T06:45:17.554Z,20.20
2022-07-30T06:55:43.601Z,20.50
2022-07-30T07:05:48.411Z,20.30
2022-07-30T07:15:53.333Z,19.70
2022-07-30T07:25:59.182Z,19.40
2022-07-30T07:36:06.100Z,19.70
2022-07-30T07:46:10.658Z,19.80
2022-07-30T07:56:15.805Z,19.70
2022-07-30T08:06:19.921Z,19.90
2022-07-30T08:16:39.483Z,20.30
2022-07-30T08:26:57.587Z,20.60
2022-07-30T08:37:03.401Z,21.90
2022-07-30T08:47:09.009Z,22.00
2022-07-30T08:57:33.742Z,22.50
2022-07-30T09:07:39.501Z,22.60
2022-07-30T09:17:55.385Z,23.40
2022-07-30T09:27:59.754Z,24.60
2022-07-30T09:38:24.610Z,27.80
2022-07-30T09:48:47.896Z,28.10
2022-07-30T09:58:52.817Z,27.50
2022-07-30T10:08:56.749Z,30.20
2022-07-30T10:19:02.713Z,32.00
2022-07-30T10:29:33.705Z,34.50
2022-07-30T10:39:45.025Z,35.30
2022-07-30T10:50:11.599Z,36.10
2022-07-30T11:00:18.500Z,44.00
2022-07-30T11:10:40.358Z,47.30
2022-07-30T11:21:16.195Z,48.50
2022-07-30T11:32:07.370Z,48.20
2022-07-30T11:42:28.612Z,44.60
2022-07-30T11:52:32.434Z,43.30
2022-07-30T12:02:37.329Z,39.90
2022-07-30T12:12:40.739Z,36.10
2022-07-30T12:22:45.917Z,36.50
2022-07-30T12:32:49.650Z,41.40
2022-07-30T12:42:55.023Z,35.80
2022-07-30T12:52:58.594Z,31.80
2022-07-30T13:03:03.477Z,30.50
2022-07-30T13:13:06.913Z,28.90
2022-07-30T13:23:11.948Z,26.00
2022-07-30T13:33:15.723Z,23.90
2022-07-30T13:43:20.568Z,22.60
2022-07-30T13:53:24.149Z,22.30
2022-07-30T14:03:28.898Z,21.90
2022-07-30T14:13:32.282Z,21.50
2022-07-30T14:23:37.028Z,21.50
2022-07-30T14:33:40.453Z,21.30
2022-07-30T14:43:45.115Z,21.30
2022-07-30T14:53:50.298Z,21.60
2022-07-30T15:03:55.009Z,21.40
2022-07-30T15:13:59.528Z,20.90
2022-07-30T15:24:04.726Z,20.70
2022-07-30T15:34:10.876Z,20.60
2022-07-30T15:44:15.685Z,20.30
2022-07-30T15:54:23.958Z,20.40
2022-07-30T16:04:31.394Z,20.40
2022-07-30T16:14:36.633Z,20.00
2022-07-30T16:24:41.343Z,19.80
2022-07-30T16:34:44.713Z,19.50
2022-07-30T16:44:49.436Z,19.40
2022-07-30T16:54:52.774Z,19.30
2022-07-30T17:04:57.558Z,19.10
2022-07-30T17:15:00.939Z,18.90
2022-07-30T17:25:07.059Z,18.70
2022-07-30T17:35:13.812Z,18.50
2022-07-30T17:45:18.811Z,18.30
2022-07-30T17:55:22.312Z,18.20
2022-07-30T18:05:27.413Z,18.00
2022-07-30T18:15:30.780Z,17.90
2022-07-30T18:25:53.273Z,17.80
2022-07-30T18:35:58.062Z,17.70
2022-07-30T18:46:05.381Z,17.80
2022-07-30T18:56:11.215Z,17.70
2022-07-30T19:06:16.395Z,17.70
2022-07-30T19:16:20.752Z,17.60
2022-07-30T19:26:25.626Z,17.50
2022-07-30T19:36:30.625Z,17.50
2022-07-30T19:46:35.496Z,17.60
2022-07-30T19:56:39.210Z,17.60
2022-07-30T20:06:46.394Z,17.50
2022-07-30T20:16:49.829Z,17.30
2022-07-30T20:26:55.547Z,17.00
2022-07-30T20:36:59.170Z,16.90
2022-07-30T20:47:34.950Z,16.80
2022-07-30T20:57:56.767Z,16.70
2022-07-30T21:08:06.661Z,16.60
2022-07-30T21:18:16.535Z,16.50
2022-07-30T21:28:27.453Z,16.40
2022-07-30T21:38:31.951Z,16.40
2022-07-30T21:48:38.215Z,16.40
2022-07-30T21:58:43.375Z,16.30
2022-07-30T22:08:49.196Z,16.20
2022-07-30T22:18:52.767Z,16.10
2022-07-30T22:28:57.457Z,16.00
2022-07-30T22:39:01.948Z,15.90
2022-07-30T22:49:24.370Z,15.80
2022-07-30T22:59:58.047Z,15.70
2022-07-30T23:10:01.565Z,15.60
2022-07-30T23:20:07.913Z,15.60
2022-07-30T23:30:14.257Z,15.50
2022-07-30T23:40:18.768Z,15.40
2022-07-30T23:50:24.449Z,15.40
